Wellington, FL

2:47 PM EDT on September 01, 2015 (GMT -0400)
Indigo Weather | | Change Station
CLOSE
Current Station
Personal Weather Station
Location: Wellington, FL
Elevation: 23 ft
Nearby Weather Stations

Elev 23 ft 26.67 °N, 80.26 °W | Updated 7 minutes ago

Partly Cloudy
Partly Cloudy
91.4 °F
Feels Like 102 °F
N
0.0
Wind Variable Wind from SSE
Gusts 4.0 mph

Today
High -- | Low -- °F
--% Chance of Precip.
Yesterday
High -- | Low -- °F
Precip. -- in
7:00 AM 7:41 PM
Waning Gibbous, 87% visible
Pressure 30.08 in
Visibility 10.0 miles
Clouds Scattered Clouds 2600 ft
Scattered Clouds 3700 ft
Scattered Clouds 24000 ft
Heat Index 102 °F
Dew Point 75 °F
Humidity 58%
Rainfall 0.00 in
Snow Depth Not available.
UV 11 out of 12
Pollen 4.80 out of 12
Air Quality Not available.
Flu Activity Not available.
METAR KPBI 011753Z 11011KT 10SM TS SCT026CB SCT037 SCT240 32/24 A3008 RMK AO2 TSB42 SLP184 OCNL LTGICCG SW-NW TS SW-NW MOV NW CB DSNT SW NW 60000 T03220244 10322 20256 56010 $
Pressure 30.08 in
Visibility 10.0 miles
Clouds Scattered Clouds 2600 ft
Scattered Clouds 3700 ft
Scattered Clouds 24000 ft
Heat Index 102 °F
Dew Point 75 °F
Humidity 58%
Rainfall 0.00 in
Snow Depth Not available.
UV 11 out of 12
Pollen 4.80 out of 12
Air Quality Not available.
Flu Activity Not available.
METAR KPBI 011753Z 11011KT 10SM TS SCT026CB SCT037 SCT240 32/24 A3008 RMK AO2 TSB42 SLP184 OCNL LTGICCG SW-NW TS SW-NW MOV NW CB DSNT SW NW 60000 T03220244 10322 20256 56010 $
Nowcast | as of 2:26 PM EDT on September 1, 2015

Scattered showers and thunderstorms will continue to develop through this afternoon. Gusty winds to 40 mph, frequent cloud to ground lightning and heavy downpours are possible with the strongest storms. Most activity is expected to move to the north northwest around 10 mph. Potentially, a half inch of rain could fall in a very short period of time.

×

10-Day Weather Forecast

×

Almanac

Astronomy

Sep. 01, 2015 Rise Set
Actual Time
Civil Twilight
Nautical Twilight
Astronomical Twilight
Moon
Length of Visible Light
Length of Day
Tomorrow will be .
, % of the Moon is Illuminated

Today's Extremes

State Highs State Lows

Community

WunderPhotos

Upload Photos

1,851,593 photos uploaded!

WunderBlogs® & News

Nearby

Air Quality

  Air Quality AQ Index Pollutant
Not available.

Snow Depth

Station Depth Elevation

Earthquake Activity

City Distance Mag. Time & Date
Minimum magnitude displayed is 2.5.

Coastal Water Temperatures

Place Temperature

Stations

Nearby Weather Stations

Station Location Temp. Windchill Dew Point Humidity Wind Precip. Elev Updated Type